เทศบาลนครสุราษฎร์ธานี, ประเทศไทย

03:28 PM ICT วัน กันยายน 02, 2015 (GMT +0700)
Surat Thani | | Change Station
CLOSE
Current Station
Airport
Location: Surat Thani,
Elevation: 23 ft
Nearby Weather Stations

Elev 23 ft 9.13 °N, 99.15 °E | Updated 28 minutes ago

Mostly Cloudy
มีเมฆคลุมเป็นส่วนใหญ่
95 ฟาเรนไฮน์
Feels Like 104 ฟาเรนไฮน์
N
7
ลม ความผันแปร ลม from ทางทิศใต้และทิศตะวันตกเฉียงใต้

วันนี้
High -- | Low -- ฟาเรนไฮน์
--% Chance of Precip.
Yesterday
High -- | Low -- ฟาเรนไฮน์
Precip. -- นิ้ว
6:14 AM 6:31 PM
ข้างแรม, 82% visible
ความดัน 29.74 นิ้ว
ทัศนวิสัย 6.2 ไมล์
เมฆ มีเมฆคลุมเป็นบางส่วน 2000 ft
มีเมฆคลุมเป็นส่วนใหญ่ 30000 ft
ดัชนีความร้อน 104 ฟาเรนไฮน์
อุณหภูมิที่อากาศอาจจับตัวเป็นหยาดน้ำค้าง 73 ฟาเรนไฮน์
ความชื้น 49%
Rainfall 0.00 นิ้ว
Snow Depth Not available.
UV 6 out of 12
Pollen Not available.
Air Quality Not available.
Flu Activity Not available.
METAR VTSB 020800Z 21006KT 9999 SCT020 BKN300 35/23 Q1007 A2976
ความดัน 29.74 นิ้ว
ทัศนวิสัย 6.2 ไมล์
เมฆ มีเมฆคลุมเป็นบางส่วน 2000 ft
มีเมฆคลุมเป็นส่วนใหญ่ 30000 ft
ดัชนีความร้อน 104 ฟาเรนไฮน์
อุณหภูมิที่อากาศอาจจับตัวเป็นหยาดน้ำค้าง 73 ฟาเรนไฮน์
ความชื้น 49%
Rainfall 0.00 นิ้ว
Snow Depth Not available.
UV 6 out of 12
Pollen Not available.
Air Quality Not available.
Flu Activity Not available.
METAR VTSB 020800Z 21006KT 9999 SCT020 BKN300 35/23 Q1007 A2976

10-Day Weather Forecast

×

Almanac

ดาราศาสตร์

Sep. 02, 2015 Rise Set
Actual Time
Civil Twilight
Nautical Twilight
Astronomical Twilight
Moon
Length Of Visible Light
ความยาวของวัน
Tomorrow will be .
, % of the Moon is Illuminated

Today's Extremes

Country Highs Country Lows

Community

WunderPhotos

Upload Photos

1,851,728 photos uploaded!

WunderBlogs® & News

Nearby

Air Quality

  Air Quality AQ Index Pollutant
Not available.

Snow Depth

Station Depth Elevation

Earthquake Activity

City Distance Mag. Time & Date
Minimum magnitude displayed is 2.5.

Coastal Water Temperatures

สถานที่ อุณหภูมิ

Stations

Nearby Weather Stations

Station Location Temp ลมหนาว อุณหภูมิที่อากาศอาจจับตัวเป็นหยาดน้ำค้าง ความชื้น ลม Precip. Elev ปรับปรุงล่าสุด Type